Malta, ID (83342)

3:00 AM MDT on August 29, 2014 (GMT -0600)
RAWS RAFT RIVER ID US | Change Station
CLOSE
Current Station
Personal Weather Station
Location: Malta, ID
Elevation: 4331 ft
Nearby Weather Stations

Elev 4331 ft 42.55 °N, 113.26 °W | Updated 41 minutes ago

Clear
Clear
59 °F
Feels Like 59 °F
N
7
Wind Variable Wind from SW
Gusts 11.0 mph

Today
High -- | Low -- °F
--% Chance of Precip.
Yesterday
High -- | Low -- °F
Precip. -- in
6:55 AM 8:12 PM
Waxing Crescent, 13% visible
Pressure 29.90 in
Visibility 10.0 miles
Clouds Clear
Dew Point 46 °F
Humidity 62%
Rainfall 0.00 in
Snow Depth Not available.
UV 0 out of 12
Pollen 8.60 out of 12
PM2.5 Moderate
Flu Activity Not available.
METAR KBYI 290853Z AUTO 21007KT 10SM CLR 16/07 A3003 RMK AO2 SLP124 T01560072 56003

More Conditions Fewer Conditions

Pressure 29.90 in
Visibility 10.0 miles
Clouds Clear
Dew Point 46 °F
Humidity 62%
Rainfall 0.00 in
Snow Depth Not available.
UV 0 out of 12
Pollen 8.60 out of 12
PM2.5 Moderate
Flu Activity Not available.
METAR KBYI 290853Z AUTO 21007KT 10SM CLR 16/07 A3003 RMK AO2 SLP124 T01560072 56003

More Conditions Fewer Conditions

10-Day Weather Forecast

Almanac

Astronomy

Aug. 29, 2014 Rise Set
Actual Time 6:55 AM MDT 8:12 PM MDT
Civil Twilight 6:26 AM MDT 8:41 PM MDT
Nautical Twilight 5:51 AM MDT 9:16 PM MDT
Astronomical Twilight 5:14 AM MDT 9:52 PM MDT
Moon 10:54 AM MDT 10:06 PM MDT
Length of Visible Light 14h 14m
Length of Day
13h 16m
Tomorrow will be 2m 42s shorter.
Waxing Crescent, 13% of the Moon is Illuminated
Today
Waxing Crescent
Sep 2
First Quarter
Sep 8
Full
Sep 15
Last Quarter
Sep 24
New

Today's Extremes

State Highs State Lows

Community

WunderPhotos

Upload Photos

1,748,203 photos uploaded!

Nearby

Air Quality

  Air Quality AQ Index Pollutant
Yesterday Good
PM2.5
Current Moderate
PM2.5
Friday Good
PM2.5

Snow Depth

Station Depth Elevation
Magic Mountain 0 in 6880 ft
Wildhorse Divide 0 in 6490 ft
Wilson Creek 0 in 7120 ft
Emigrant Summit 0 in 7390 ft
Franklin Basin 1 in 8170 ft

Earthquake Activity

City Distance Mag. Time & Date
No recent earthquake activity has been reported nearby.
Minimum magnitude displayed is 2.5.

Coastal Water Temperatures

Place Temperature
No Stations Reporting

Nearby Weather Stations